Time;durP1;ratioP1;P1;durP2;ratioP2;P2;SDS_P1;SDS_P2;PMS_P1;PMS_P2;Temp;Humidity;BMP_temperature;BMP_pressure;BME280_temperature;BME280_humidity;BME280_pressure;Samples;Min_cycle;Max_cycle;Signal;HPM_P1;HPM_P2
2020/12/29 12:35:52;;;;;;;8.23;7.72;;;;;;;3.59;92.96;97864.63;5142848;27;20414;-70
2020/12/29 12:38:18;;;;;;;8.25;7.85;;;;;;;3.92;92.71;97867.31;5111615;27;20040;-67
2020/12/29 12:40:44;;;;;;;7.72;7.32;;;;;;;4.19;92.35;97862.53;5106048;28;20043;-67
2020/12/29 12:43:10;;;;;;;7.68;7.28;;;;;;;4.43;91.70;97876.00;5107298;28;20044;-66
2020/12/29 12:45:36;;;;;;;8.45;8.05;;;;;;;4.58;90.91;97883.84;5107827;28;20039;-66
2020/12/29 12:48:02;;;;;;;8.52;8.13;;;;;;;4.73;90.73;97889.13;5105507;28;20044;-71
2020/12/29 12:50:28;;;;;;;8.82;8.43;;;;;;;4.85;90.16;97891.09;5106055;28;20047;-69
2020/12/29 12:52:55;;;;;;;8.52;8.13;;;;;;;4.97;89.96;97899.97;5098913;28;20040;-70
2020/12/29 12:55:21;;;;;;;7.93;7.53;;;;;;;5.08;89.60;97908.88;5100810;28;20417;-68
2020/12/29 12:57:48;;;;;;;9.10;8.70;;;;;;;5.25;89.50;97894.16;5105661;28;20123;-68
2020/12/29 13:00:14;;;;;;;8.75;8.35;;;;;;;5.38;89.18;97908.97;5105126;28;20040;-68
2020/12/29 13:02:40;;;;;;;8.02;7.63;;;;;;;5.45;88.82;97906.91;5107152;28;20228;-68
2020/12/29 13:05:06;;;;;;;8.93;8.52;;;;;;;5.53;88.67;97919.47;5103486;28;20176;-68
2020/12/29 13:07:32;;;;;;;8.85;8.45;;;;;;;5.60;88.73;97921.63;5102542;28;20149;-69
2020/12/29 13:09:59;;;;;;;8.32;7.93;;;;;;;5.66;88.31;97923.91;5098779;28;20455;-69
2020/12/29 13:12:26;;;;;;;9.05;8.65;;;;;;;5.73;88.13;97935.63;5103668;28;20511;-68
2020/12/29 13:14:52;;;;;;;8.73;8.32;;;;;;;5.82;88.17;97940.31;5104756;28;20142;-69
2020/12/29 13:17:19;;;;;;;9.57;9.15;;;;;;;5.93;87.97;97946.72;5099111;28;20052;-69
2020/12/29 13:19:45;;;;;;;8.45;8.05;;;;;;;6.02;88.13;97944.44;5100325;28;20132;-69
2020/12/29 13:22:11;;;;;;;8.68;8.27;;;;;;;6.07;87.80;97959.81;5098702;28;20127;-69
2020/12/29 13:24:37;;;;;;;9.35;8.95;;;;;;;6.09;87.48;97963.16;5106170;28;20040;-69
2020/12/29 13:27:04;;;;;;;9.00;8.60;;;;;;;6.11;87.41;97966.50;5104357;28;20065;-69
2020/12/29 13:29:30;;;;;;;9.07;8.68;;;;;;;6.12;87.50;97975.97;5099296;28;20498;-69
2020/12/29 13:31:57;;;;;;;9.00;8.60;;;;;;;6.16;87.37;97985.28;5103006;28;20051;-69
2020/12/29 13:34:23;;;;;;;9.27;8.88;;;;;;;6.19;87.32;97994.66;5101607;28;20062;-69
2020/12/29 13:36:49;;;;;;;8.43;8.02;;;;;;;6.22;87.18;97999.69;5104921;28;20040;-69
2020/12/29 13:39:16;;;;;;;8.65;8.25;;;;;;;6.26;87.13;98003.84;5100575;28;20044;-68
2020/12/29 13:41:42;;;;;;;8.85;8.45;;;;;;;6.32;87.24;98012.13;5104816;28;20100;-70
2020/12/29 13:44:09;;;;;;;9.13;8.73;;;;;;;6.39;87.16;98008.22;5105372;28;20082;-68
2020/12/29 13:46:35;;;;;;;8.88;8.48;;;;;;;6.44;86.96;98020.97;5093532;28;20036;-68
2020/12/29 13:49:01;;;;;;;9.48;9.07;;;;;;;6.52;86.97;98013.59;5090481;28;20071;-68
2020/12/29 13:51:27;;;;;;;9.13;8.73;;;;;;;6.63;86.92;98020.75;5090509;28;20096;-69
2020/12/29 13:53:54;;;;;;;8.82;8.43;;;;;;;6.76;86.89;98026.94;5089647;28;20398;-68
2020/12/29 13:56:20;;;;;;;9.05;8.65;;;;;;;6.87;86.82;98021.97;5090619;28;20408;-69
2020/12/29 13:58:46;;;;;;;9.15;8.75;;;;;;;6.99;86.64;98023.81;5092122;28;20040;-71
2020/12/29 14:01:13;;;;;;;8.93;8.52;;;;;;;7.09;86.53;98023.31;5088523;28;20048;-70
2020/12/29 14:03:40;;;;;;;9.20;8.80;;;;;;;7.11;86.38;98027.50;5089735;28;20512;-69
2020/12/29 14:06:06;;;;;;;9.55;9.15;;;;;;;7.07;86.04;98035.56;5089154;28;20161;-71
2020/12/29 14:08:32;;;;;;;8.80;8.40;;;;;;;6.97;86.19;98043.94;5092473;28;20483;-71
2020/12/29 14:10:58;;;;;;;8.50;8.10;;;;;;;6.87;86.09;98054.94;5087649;28;20458;-70
2020/12/29 14:13:27;;;;;;;8.57;8.18;;;;;;;6.78;86.08;98060.72;5086475;28;20438;-69
2020/12/29 14:15:53;;;;;;;8.70;8.30;;;;;;;6.73;86.08;98053.16;5090618;28;20080;-68
2020/12/29 14:18:20;;;;;;;8.25;7.85;;;;;;;6.70;86.39;98050.75;5091858;28;20155;-70
2020/12/29 14:20:46;;;;;;;8.18;7.78;;;;;;;6.70;86.36;98063.75;5091231;28;20044;-69
2020/12/29 14:23:13;;;;;;;9.10;8.70;;;;;;;6.68;86.45;98065.63;5088633;28;20051;-69
2020/12/29 14:25:39;;;;;;;8.93;8.52;;;;;;;6.67;86.26;98074.38;5087094;28;20040;-69
2020/12/29 14:28:05;;;;;;;8.55;8.15;;;;;;;6.63;86.31;98084.09;5084735;28;20045;-70
2020/12/29 14:30:31;;;;;;;8.57;8.18;;;;;;;6.62;86.35;98090.22;5084830;28;20127;-68
2020/12/29 14:32:57;;;;;;;8.23;7.82;;;;;;;6.61;86.28;98100.72;5084126;28;20032;-68
2020/12/29 14:35:24;;;;;;;8.32;7.93;;;;;;;6.58;86.27;98101.75;5084598;28;20056;-69
2020/12/29 14:37:50;;;;;;;7.38;6.97;;;;;;;6.57;86.34;98105.28;5091096;28;20127;-68
2020/12/29 14:40:16;;;;;;;8.38;7.97;;;;;;;6.55;86.01;98106.28;5088443;28;20153;-68
2020/12/29 14:42:42;;;;;;;7.95;7.55;;;;;;;6.53;86.25;98115.94;5090279;28;20048;-69
2020/12/29 14:45:08;;;;;;;8.23;7.82;;;;;;;6.48;86.14;98121.41;5088157;28;20081;-68
2020/12/29 14:47:35;;;;;;;8.30;7.90;;;;;;;6.45;86.15;98131.13;5089380;28;20445;-67
2020/12/29 14:50:01;;;;;;;8.60;8.20;;;;;;;6.43;86.17;98132.06;5092396;28;20079;-69
2020/12/29 14:52:28;;;;;;;8.68;8.27;;;;;;;6.39;86.27;98132.31;5088793;28;20563;-68
2020/12/29 14:54:54;;;;;;;8.80;8.40;;;;;;;6.37;86.27;98140.22;5092233;28;20069;-68
2020/12/29 14:57:20;;;;;;;7.53;7.13;;;;;;;6.35;86.02;98139.47;5089916;28;20097;-68
2020/12/29 14:59:46;;;;;;;8.50;8.10;;;;;;;6.33;86.24;98141.31;5092481;28;20093;-68
2020/12/29 15:02:12;;;;;;;8.95;8.55;;;;;;;6.29;86.16;98139.81;5092297;28;20079;-69
2020/12/29 15:04:39;;;;;;;7.75;7.35;;;;;;;6.25;86.50;98151.31;5091722;28;20043;-67
2020/12/29 15:07:05;;;;;;;7.35;6.95;;;;;;;6.22;86.26;98155.81;5091161;28;20127;-69
2020/12/29 15:09:32;;;;;;;8.55;8.15;;;;;;;6.16;86.19;98167.38;5092185;28;20043;-68
2020/12/29 15:11:58;;;;;;;8.77;8.38;;;;;;;6.12;86.18;98173.69;5082922;28;20049;-68
2020/12/29 15:14:24;;;;;;;8.65;8.25;;;;;;;6.08;86.20;98172.19;5082967;28;20050;-68
2020/12/29 15:16:50;;;;;;;8.50;8.10;;;;;;;6.05;86.28;98175.78;5080974;28;20499;-68
2020/12/29 15:19:17;;;;;;;8.73;8.32;;;;;;;6.05;86.34;98170.59;5092047;28;20086;-68
2020/12/29 15:21:44;;;;;;;7.90;7.50;;;;;;;6.04;86.33;98186.28;5089222;28;20054;-69
2020/12/29 15:24:10;;;;;;;8.60;8.20;;;;;;;6.05;86.34;98187.94;5091697;28;20487;-67
2020/12/29 15:26:38;;;;;;;8.00;7.60;;;;;;;6.05;86.30;98190.56;5089865;28;20040;-68
2020/12/29 15:29:04;;;;;;;8.23;7.82;;;;;;;6.06;86.37;98200.03;5091755;28;20085;-68
2020/12/29 15:31:30;;;;;;;8.45;8.05;;;;;;;6.06;86.32;98207.84;5091530;28;20123;-68
2020/12/29 15:33:56;;;;;;;7.75;7.35;;;;;;;6.08;86.30;98200.78;5090879;28;20052;-68
2020/12/29 15:36:22;;;;;;;8.45;8.05;;;;;;;6.09;86.44;98202.47;5091901;28;20040;-67
2020/12/29 15:38:49;;;;;;;7.60;7.20;;;;;;;6.07;86.52;98212.13;5091941;28;20044;-69
2020/12/29 15:41:18;;;;;;;8.38;7.97;;;;;;;6.03;86.17;98218.38;5091518;28;20048;-71
2020/12/29 15:43:46;;;;;;;7.80;7.40;;;;;;;6.00;86.12;98208.13;5091280;28;20483;-68
2020/12/29 15:46:13;;;;;;;8.07;7.68;;;;;;;5.98;86.25;98231.63;5089596;28;20044;-69
2020/12/29 15:48:39;;;;;;;8.18;7.78;;;;;;;5.95;86.34;98236.16;5091572;28;20355;-68
2020/12/29 15:51:08;;;;;;;7.72;7.32;;;;;;;5.93;86.35;98248.41;5090697;28;20044;-69
2020/12/29 15:53:35;;;;;;;8.48;8.07;;;;;;;5.92;86.23;98236.31;5088361;28;20069;-68
2020/12/29 15:56:02;;;;;;;7.65;7.25;;;;;;;5.90;86.26;98243.34;5091458;28;20044;-72
2020/12/29 15:58:29;;;;;;;8.00;7.60;;;;;;;5.87;86.44;98249.53;5090372;28;20052;-70
2020/12/29 16:00:56;;;;;;;8.35;7.95;;;;;;;5.86;86.41;98263.44;5091360;28;20047;-68
2020/12/29 16:03:23;;;;;;;8.63;8.23;;;;;;;5.84;86.27;98261.84;5085432;28;20036;-68
2020/12/29 16:05:49;;;;;;;7.90;7.50;;;;;;;5.80;86.31;98256.78;5074813;28;20094;-68
2020/12/29 16:08:15;;;;;;;7.45;7.05;;;;;;;5.77;86.28;98262.13;5070986;28;20510;-68
2020/12/29 16:10:41;;;;;;;7.45;7.05;;;;;;;5.73;86.24;98263.22;5071167;28;20079;-69
2020/12/29 16:13:07;;;;;;;7.90;7.50;;;;;;;5.71;86.26;98265.06;5071259;28;20044;-68
2020/12/29 16:15:33;;;;;;;7.78;7.38;;;;;;;5.66;86.27;98269.66;5071329;28;20048;-68
2020/12/29 16:18:00;;;;;;;7.60;7.20;;;;;;;5.62;86.42;98270.72;5089832;28;20181;-67
2020/12/29 16:20:27;;;;;;;8.25;7.85;;;;;;;5.58;86.35;98269.16;5090643;28;20105;-68
2020/12/29 16:22:53;;;;;;;7.82;7.43;;;;;;;5.55;86.36;98284.91;5090221;28;20044;-68
2020/12/29 16:25:19;;;;;;;8.07;7.68;;;;;;;5.50;86.48;98289.50;5091048;28;20044;-68
2020/12/29 16:27:45;;;;;;;7.35;6.95;;;;;;;5.47;86.42;98292.25;5091136;28;20047;-67
2020/12/29 16:30:12;;;;;;;8.15;7.75;;;;;;;5.44;86.46;98287.22;5089826;28;21009;-68
2020/12/29 16:32:38;;;;;;;8.27;7.88;;;;;;;5.41;86.54;98292.53;5088360;28;20040;-68
2020/12/29 16:35:09;;;;;;;7.78;7.38;;;;;;;5.42;86.61;98300.28;5074172;28;20066;-67
2020/12/29 16:37:35;;;;;;;7.68;7.28;;;;;;;5.44;86.74;98311.44;5056019;28;20110;-67
2020/12/29 16:40:01;;;;;;;7.03;6.72;;;;;;;5.47;86.79;98318.25;5071252;28;20143;-68
2020/12/29 16:42:27;;;;;;;8.50;8.10;;;;;;;5.47;86.86;98310.44;5080167;28;20048;-68
2020/12/29 16:44:53;;;;;;;8.02;7.63;;;;;;;5.49;86.84;98311.22;5089054;28;20050;-66
2020/12/29 16:47:19;;;;;;;7.57;7.18;;;;;;;5.51;86.85;98324.97;5080105;28;20044;-67
2020/12/29 16:49:46;;;;;;;7.82;7.43;;;;;;;5.53;86.86;98314.50;5078741;28;20117;-68
2020/12/29 16:52:13;;;;;;;7.85;7.45;;;;;;;5.55;86.92;98318.72;5080040;28;20040;-68
2020/12/29 16:54:39;;;;;;;7.25;6.85;;;;;;;5.57;87.05;98314.28;5089612;28;20048;-68
2020/12/29 16:57:06;;;;;;;8.07;7.68;;;;;;;5.59;87.03;98320.22;5091019;28;20123;-67
2020/12/29 16:59:33;;;;;;;8.40;8.00;;;;;;;5.60;86.95;98327.13;5086392;28;20055;-68
2020/12/29 17:01:59;;;;;;;7.32;6.93;;;;;;;5.62;86.86;98317.50;5079933;28;20032;-69
2020/12/29 17:04:25;;;;;;;7.47;7.07;;;;;;;5.64;86.89;98322.63;5080413;28;20070;-69
2020/12/29 17:06:52;;;;;;;8.02;7.63;;;;;;;5.63;87.07;98323.56;5078146;28;20055;-69
2020/12/29 17:09:19;;;;;;;7.88;7.47;;;;;;;5.64;87.05;98330.44;5073294;28;20055;-69
2020/12/29 17:11:45;;;;;;;7.15;6.78;;;;;;;5.63;86.91;98340.00;5080542;28;20507;-69
2020/12/29 17:14:13;;;;;;;7.45;7.05;;;;;;;5.64;86.90;98340.84;5090624;28;20044;-68
2020/12/29 17:16:39;;;;;;;7.25;6.85;;;;;;;5.63;86.89;98354.75;5079564;28;20048;-68
2020/12/29 17:19:12;;;;;;;6.65;6.35;;;;;;;5.64;87.07;98356.44;5081003;28;20044;-68
2020/12/29 17:21:40;;;;;;;7.78;7.38;;;;;;;5.66;87.03;98354.59;5081925;28;20044;-69
2020/12/29 17:24:06;;;;;;;7.50;7.10;;;;;;;5.68;86.98;98358.81;5082755;28;20040;-68
2020/12/29 17:26:34;;;;;;;6.72;6.43;;;;;;;5.68;87.10;98356.19;5085307;28;20116;-68
2020/12/29 17:29:02;;;;;;;7.30;6.90;;;;;;;5.74;87.24;98358.50;5082719;28;20055;-68
2020/12/29 17:31:30;;;;;;;6.75;6.45;;;;;;;5.78;87.08;98364.38;5084166;28;20116;-68
2020/12/29 17:33:57;;;;;;;6.82;6.53;;;;;;;5.79;87.16;98361.69;5091364;28;20127;-69
2020/12/29 17:36:24;;;;;;;7.10;6.75;;;;;;;5.85;87.32;98367.53;5085445;28;20431;-68
2020/12/29 17:38:51;;;;;;;7.47;7.07;;;;;;;5.88;86.93;98372.59;5092943;28;20051;-69
2020/12/29 17:41:19;;;;;;;7.57;7.18;;;;;;;5.91;87.11;98364.66;5087841;28;20483;-69
2020/12/29 17:43:47;;;;;;;7.78;7.38;;;;;;;5.96;87.24;98350.50;5090304;28;20045;-68
2020/12/29 17:46:15;;;;;;;6.93;6.63;;;;;;;5.99;87.27;98372.91;5089546;28;20518;-68
2020/12/29 17:48:41;;;;;;;8.05;7.65;;;;;;;6.01;87.34;98363.28;5082384;28;20202;-70
2020/12/29 17:51:07;;;;;;;7.13;6.72;;;;;;;6.01;87.25;98368.47;5083533;28;20131;-68
2020/12/29 17:53:34;;;;;;;6.47;6.18;;;;;;;6.03;87.34;98364.88;5090968;28;20081;-68
2020/12/29 17:56:00;;;;;;;7.50;7.10;;;;;;;6.06;87.30;98374.31;5093336;28;20488;-68
2020/12/29 17:58:27;;;;;;;6.65;6.35;;;;;;;6.06;87.22;98384.72;5083119;28;20516;-68
2020/12/29 18:00:54;;;;;;;7.03;6.72;;;;;;;6.04;87.15;98389.16;5083576;28;20392;-68
2020/12/29 18:03:20;;;;;;;6.75;6.45;;;;;;;6.02;87.04;98388.38;5090780;28;20054;-68
2020/12/29 18:05:46;;;;;;;7.38;6.97;;;;;;;6.02;87.28;98388.38;5093951;28;20083;-67
2020/12/29 18:08:12;;;;;;;7.32;6.93;;;;;;;6.02;87.15;98403.97;5093823;28;20040;-67
2020/12/29 18:10:40;;;;;;;7.78;7.38;;;;;;;6.00;86.94;98400.59;5088791;28;20388;-69
2020/12/29 18:13:06;;;;;;;7.30;6.90;;;;;;;5.98;86.80;98403.28;5091253;28;20051;-68
2020/12/29 18:15:32;;;;;;;7.50;7.10;;;;;;;5.96;87.06;98409.47;5084703;28;20398;-68
2020/12/29 18:17:59;;;;;;;7.45;7.05;;;;;;;5.95;87.20;98419.03;5088835;28;20040;-68
2020/12/29 18:20:26;;;;;;;7.20;6.80;;;;;;;5.97;87.25;98413.75;5084085;28;20514;-67
2020/12/29 18:22:52;;;;;;;7.57;7.18;;;;;;;5.96;87.23;98419.88;5086077;28;20359;-69
2020/12/29 18:25:18;;;;;;;6.50;6.20;;;;;;;5.93;87.16;98418.28;5086217;28;21323;-68
2020/12/29 18:27:44;;;;;;;7.65;7.25;;;;;;;5.92;87.16;98421.81;5089988;28;20127;-69
2020/12/29 18:30:11;;;;;;;7.03;6.70;;;;;;;5.91;87.20;98419.28;5090664;28;20074;-69
2020/12/29 18:32:38;;;;;;;6.97;6.68;;;;;;;5.89;87.08;98415.88;5086576;28;20484;-69
2020/12/29 18:35:05;;;;;;;7.65;7.25;;;;;;;5.86;87.09;98413.44;5089808;28;20056;-69
2020/12/29 18:37:32;;;;;;;7.22;6.82;;;;;;;5.84;87.19;98423.91;5086821;28;20506;-67
2020/12/29 18:39:58;;;;;;;6.25;5.95;;;;;;;5.82;87.08;98423.13;5087596;28;20040;-68
2020/12/29 18:42:25;;;;;;;7.85;7.45;;;;;;;5.81;87.22;98422.28;5087825;28;20138;-66
2020/12/29 18:44:52;;;;;;;7.47;7.07;;;;;;;5.82;87.30;98426.56;5088567;28;20459;-69
2020/12/29 18:47:18;;;;;;;6.57;6.28;;;;;;;5.84;87.17;98426.50;5088176;28;20047;-68
2020/12/29 18:49:44;;;;;;;6.90;6.60;;;;;;;5.82;87.26;98429.16;5090706;28;20048;-68
2020/12/29 18:52:11;;;;;;;7.50;7.10;;;;;;;5.82;86.91;98454.31;5087909;28;20036;-69
2020/12/29 18:54:37;;;;;;;7.30;6.90;;;;;;;5.79;87.23;98455.31;5088325;28;20040;-68
2020/12/29 18:57:04;;;;;;;6.57;6.28;;;;;;;5.79;87.21;98454.47;5087420;28;20507;-68
2020/12/29 18:59:30;;;;;;;8.10;7.70;;;;;;;5.80;87.22;98462.19;5083619;28;20044;-68
2020/12/29 19:01:56;;;;;;;6.97;6.68;;;;;;;5.78;87.36;98464.03;5088638;28;20123;-69
2020/12/29 19:04:22;;;;;;;6.55;6.25;;;;;;;5.78;87.25;98481.38;5088877;28;20510;-69
2020/12/29 19:06:48;;;;;;;7.32;6.93;;;;;;;5.75;87.13;98484.97;5089346;28;20044;-68
2020/12/29 19:09:15;;;;;;;7.63;7.22;;;;;;;5.72;87.13;98490.31;5091675;28;20471;-68
2020/12/29 19:11:42;;;;;;;7.25;6.85;;;;;;;5.69;87.05;98489.63;5089917;28;20130;-67
2020/12/29 19:14:09;;;;;;;6.93;6.63;;;;;;;5.64;87.13;98502.84;5089254;28;20518;-68
2020/12/29 19:16:35;;;;;;;6.95;6.65;;;;;;;5.62;87.05;98498.59;5087689;28;20419;-69
2020/12/29 19:19:01;;;;;;;7.40;7.00;;;;;;;5.59;87.06;98497.00;5091373;28;20181;-67
2020/12/29 19:21:28;;;;;;;7.25;6.85;;;;;;;5.57;87.22;98506.63;5089562;28;20044;-68
2020/12/29 19:23:54;;;;;;;6.90;6.60;;;;;;;5.55;87.07;98513.66;5089381;28;20131;-68
2020/12/29 19:26:22;;;;;;;7.20;6.80;;;;;;;5.54;87.27;98522.38;5089534;28;20059;-69
2020/12/29 19:28:49;;;;;;;6.38;6.07;;;;;;;5.56;87.36;98530.09;5083805;28;20487;-69
2020/12/29 19:31:17;;;;;;;6.68;6.38;;;;;;;5.56;87.32;98530.94;5086630;28;20048;-69
2020/12/29 19:33:46;;;;;;;6.90;6.60;;;;;;;5.56;87.24;98551.72;5074990;28;20045;-68
2020/12/29 19:36:13;;;;;;;6.75;6.45;;;;;;;5.56;87.32;98549.13;5080000;28;20438;-68
2020/12/29 19:38:41;;;;;;;7.05;6.70;;;;;;;5.54;87.19;98558.75;5081701;28;20082;-68
2020/12/29 19:41:07;;;;;;;7.22;6.90;;;;;;;5.51;87.17;98564.94;5081147;28;20040;-69
2020/12/29 19:43:34;;;;;;;6.57;6.28;;;;;;;5.50;87.13;98567.59;5080621;28;20122;-69
2020/12/29 19:46:01;;;;;;;7.18;6.78;;;;;;;5.46;87.01;98584.25;5081970;28;20793;-69
2020/12/29 19:48:27;;;;;;;7.47;7.07;;;;;;;5.43;87.02;98587.84;5080478;28;20475;-70
2020/12/29 19:50:54;;;;;;;6.68;6.38;;;;;;;5.41;87.08;98584.47;5081416;28;20050;-68
2020/12/29 19:53:21;;;;;;;7.15;6.75;;;;;;;5.39;87.16;98580.22;5082204;28;20041;-71
2020/12/29 19:55:47;;;;;;;7.55;7.15;;;;;;;5.38;87.26;98584.56;5073254;28;20098;-68
2020/12/29 19:58:13;;;;;;;6.85;6.55;;;;;;;5.36;87.22;98591.59;5070461;28;20101;-69
2020/12/29 20:00:40;;;;;;;6.95;6.63;;;;;;;5.34;87.05;98587.38;5089348;28;20130;-68
2020/12/29 20:03:06;;;;;;;6.85;6.55;;;;;;;5.33;86.98;98588.28;5091347;28;20048;-67
2020/12/29 20:05:35;;;;;;;6.60;6.30;;;;;;;5.30;87.26;98591.88;5092152;28;20046;-69
2020/12/29 20:08:01;;;;;;;6.25;5.95;;;;;;;5.30;87.15;98598.81;5090901;28;20047;-70
2020/12/29 20:10:27;;;;;;;6.63;6.32;;;;;;;5.30;87.15;98601.41;5091491;28;20060;-71
2020/12/29 20:12:53;;;;;;;6.70;6.40;;;;;;;5.29;87.23;98604.94;5091511;28;20492;-70
2020/12/29 20:15:19;;;;;;;6.72;6.43;;;;;;;5.27;87.22;98611.94;5091101;28;20391;-70
2020/12/29 20:17:46;;;;;;;6.93;6.63;;;;;;;5.26;87.19;98624.09;5091404;28;20135;-71
2020/12/29 20:20:13;;;;;;;6.60;6.30;;;;;;;5.28;87.21;98619.66;5090474;28;20376;-71
2020/12/29 20:22:39;;;;;;;7.60;7.20;;;;;;;5.30;87.31;98630.00;5091651;28;20040;-72
2020/12/29 20:25:05;;;;;;;7.85;7.45;;;;;;;5.33;87.46;98648.03;5090471;28;20510;-71
2020/12/29 20:27:31;;;;;;;7.03;6.70;;;;;;;5.35;87.38;98638.44;5088373;28;20138;-71
2020/12/29 20:29:57;;;;;;;6.25;5.95;;;;;;;5.35;87.51;98647.06;5088815;28;20071;-71
2020/12/29 20:32:24;;;;;;;6.82;6.53;;;;;;;5.38;87.44;98648.69;5079018;28;20043;-71
2020/12/29 20:34:50;;;;;;;6.90;6.60;;;;;;;5.36;87.43;98646.16;5088017;28;20063;-71
2020/12/29 20:37:17;;;;;;;6.85;6.55;;;;;;;5.38;87.53;98646.09;5084108;28;20043;-70
2020/12/29 20:39:43;;;;;;;7.18;6.78;;;;;;;5.39;87.42;98640.81;5081891;28;20506;-70
2020/12/29 20:42:09;;;;;;;7.18;6.78;;;;;;;5.40;87.46;98654.66;5088953;28;20093;-71
2020/12/29 20:44:35;;;;;;;6.85;6.55;;;;;;;5.42;87.44;98658.06;5083668;28;20079;-70
2020/12/29 20:47:01;;;;;;;7.28;6.88;;;;;;;5.42;87.38;98658.91;5082682;28;20040;-70
2020/12/29 20:49:27;;;;;;;7.20;6.80;;;;;;;5.45;87.49;98655.34;5080608;28;20036;-71
2020/12/29 20:51:54;;;;;;;6.70;6.40;;;;;;;5.45;87.50;98652.72;5076028;28;20056;-71
2020/12/29 20:54:20;;;;;;;6.35;6.05;;;;;;;5.44;87.40;98651.88;5078943;28;20128;-70
2020/12/29 20:56:49;;;;;;;6.88;6.57;;;;;;;5.43;87.39;98659.75;5081530;28;20131;-68
2020/12/29 20:59:18;;;;;;;6.65;6.35;;;;;;;5.41;87.40;98664.16;5083939;28;20044;-67
2020/12/29 21:01:44;;;;;;;6.38;6.07;;;;;;;5.41;87.35;98661.53;5085660;28;20040;-68
2020/12/29 21:04:11;;;;;;;6.63;6.32;;;;;;;5.37;87.31;98671.22;5091215;28;20560;-69
2020/12/29 21:06:37;;;;;;;6.57;6.28;;;;;;;5.37;87.11;98685.97;5092649;28;20370;-68
2020/12/29 21:09:07;;;;;;;6.38;6.07;;;;;;;5.35;87.44;98677.41;5091758;28;20435;-68
2020/12/29 21:11:33;;;;;;;6.67;6.37;;;;;;;5.34;87.27;98675.72;5094925;28;20051;-67
2020/12/29 21:13:59;;;;;;;6.80;6.50;;;;;;;5.31;87.34;98686.25;5095043;28;20043;-68
2020/12/29 21:16:25;;;;;;;6.05;5.75;;;;;;;5.30;87.43;98694.94;5088591;28;20110;-68
2020/12/29 21:18:52;;;;;;;6.13;5.82;;;;;;;5.27;87.40;98701.13;5089091;28;20093;-66
2020/12/29 21:21:23;;;;;;;6.13;5.82;;;;;;;5.24;87.38;98700.41;5092149;28;20435;-68
2020/12/29 21:23:49;;;;;;;7.03;6.68;;;;;;;5.23;87.07;98709.13;5073750;28;20119;-67
2020/12/29 21:26:18;;;;;;;6.55;6.25;;;;;;;5.18;87.34;98706.69;5073235;28;20052;-67
2020/12/29 21:28:44;;;;;;;6.43;6.13;;;;;;;5.14;87.22;98711.16;5074235;28;20059;-67
2020/12/29 21:31:13;;;;;;;6.32;6.03;;;;;;;5.10;87.13;98720.00;5074421;28;20066;-68
2020/12/29 21:33:39;;;;;;;5.75;5.45;;;;;;;5.07;87.16;98719.28;5074304;28;20047;-68
2020/12/29 21:36:05;;;;;;;6.28;5.97;;;;;;;5.03;87.13;98718.56;5073151;28;20048;-67
2020/12/29 21:38:31;;;;;;;6.25;5.95;;;;;;;4.98;87.13;98710.09;5075399;28;20055;-67
2020/12/29 21:40:58;;;;;;;6.35;6.05;;;;;;;4.95;87.15;98706.78;5094573;28;20050;-67
2020/12/29 21:43:24;;;;;;;5.97;5.68;;;;;;;4.92;87.14;98714.69;5093544;28;20040;-67
2020/12/29 21:45:51;;;;;;;6.40;6.10;;;;;;;4.87;86.87;98715.72;5086359;28;20050;-67
2020/12/29 21:48:17;;;;;;;6.18;5.88;;;;;;;4.82;87.07;98717.66;5071538;28;20044;-66
2020/12/29 21:50:43;;;;;;;6.50;6.20;;;;;;;4.78;86.86;98720.41;5078149;28;20085;-68
2020/12/29 21:53:09;;;;;;;6.47;6.18;;;;;;;4.76;86.95;98722.22;5090867;28;20050;-67
2020/12/29 21:55:35;;;;;;;6.50;6.20;;;;;;;4.70;87.00;98720.72;5091371;28;20050;-67
2020/12/29 21:58:01;;;;;;;6.32;6.03;;;;;;;4.68;86.82;98729.47;5091252;28;20495;-67
2020/12/29 22:00:28;;;;;;;6.57;6.28;;;;;;;4.65;86.83;98735.63;5092371;28;20134;-66
2020/12/29 22:02:54;;;;;;;6.25;5.95;;;;;;;4.62;87.09;98732.31;5093578;28;20128;-67
2020/12/29 22:05:20;;;;;;;6.20;5.90;;;;;;;4.59;86.93;98738.47;5094278;28;20048;-67
2020/12/29 22:07:46;;;;;;;6.57;6.28;;;;;;;4.54;86.84;98743.81;5093473;28;20130;-67
2020/12/29 22:10:12;;;;;;;6.28;5.97;;;;;;;4.51;87.18;98746.53;5093693;28;20132;-68
2020/12/29 22:12:38;;;;;;;6.38;6.07;;;;;;;4.48;86.76;98751.84;5094022;28;20048;-67
2020/12/29 22:15:05;;;;;;;6.93;6.63;;;;;;;4.47;86.98;98754.50;5093559;28;20052;-67
2020/12/29 22:17:31;;;;;;;6.60;6.30;;;;;;;4.47;86.86;98754.50;5093745;28;20058;-66
2020/12/29 22:19:57;;;;;;;6.03;5.72;;;;;;;4.46;87.05;98758.84;5094027;28;20131;-67
2020/12/29 22:22:23;;;;;;;6.55;6.25;;;;;;;4.45;86.88;98764.09;5093687;28;20062;-66
2020/12/29 22:24:50;;;;;;;6.65;6.35;;;;;;;4.43;86.85;98769.34;5093557;28;20131;-66
2020/12/29 22:27:16;;;;;;;6.05;5.75;;;;;;;4.41;86.86;98776.34;5093731;28;20135;-68
2020/12/29 22:29:42;;;;;;;6.65;6.35;;;;;;;4.39;86.86;98778.16;5093277;28;20048;-68
2020/12/29 22:32:08;;;;;;;6.65;6.35;;;;;;;4.35;86.79;98780.88;5093316;28;20044;-68
2020/12/29 22:34:38;;;;;;;6.38;6.07;;;;;;;4.34;86.86;98785.22;5092909;28;20721;-67
2020/12/29 22:37:04;;;;;;;6.28;5.97;;;;;;;4.32;86.67;98792.22;5092408;28;20051;-67
2020/12/29 22:39:31;;;;;;;6.65;6.35;;;;;;;4.29;86.71;98792.34;5093034;28;20127;-66
2020/12/29 22:41:57;;;;;;;6.28;5.97;;;;;;;4.26;86.93;98787.25;5091903;28;20487;-67
2020/12/29 22:44:23;;;;;;;5.95;5.65;;;;;;;4.26;86.83;98792.44;5093389;28;20056;-67
2020/12/29 22:46:49;;;;;;;6.13;5.82;;;;;;;4.25;86.75;98788.16;5093384;28;20050;-67
2020/12/29 22:49:16;;;;;;;6.20;5.90;;;;;;;4.23;86.74;98795.16;5092638;28;20451;-67
2020/12/29 22:51:43;;;;;;;6.10;5.80;;;;;;;4.19;86.79;98791.84;5092584;28;20044;-67
2020/12/29 22:54:09;;;;;;;6.22;5.93;;;;;;;4.18;86.88;98789.31;5092481;28;20050;-67
2020/12/29 22:56:35;;;;;;;6.13;5.82;;;;;;;4.17;86.85;98785.00;5092959;28;20052;-67
2020/12/29 22:59:01;;;;;;;6.45;6.15;;;;;;;4.15;86.79;98789.38;5092829;28;20036;-67
2020/12/29 23:01:31;;;;;;;6.18;5.88;;;;;;;4.12;86.69;98794.69;5092959;28;20044;-67
2020/12/29 23:03:57;;;;;;;5.47;5.18;;;;;;;4.13;86.92;98796.38;5093013;28;20076;-67
2020/12/29 23:06:23;;;;;;;5.70;5.40;;;;;;;4.08;86.71;98808.66;5091762;28;20048;-66
2020/12/29 23:08:50;;;;;;;6.63;6.32;;;;;;;4.04;86.67;98807.94;5092202;28;20048;-66
2020/12/29 23:11:16;;;;;;;6.13;5.82;;;;;;;4.02;86.62;98808.88;5091236;28;20044;-67
2020/12/29 23:13:43;;;;;;;6.13;5.82;;;;;;;4.00;86.66;98810.69;5092544;28;20079;-67
2020/12/29 23:16:09;;;;;;;6.07;5.78;;;;;;;3.97;86.80;98809.91;5092737;28;20090;-67
2020/12/29 23:18:35;;;;;;;6.10;5.80;;;;;;;3.95;86.85;98816.84;5091779;28;20044;-66
2020/12/29 23:21:01;;;;;;;5.90;5.60;;;;;;;3.92;86.77;98814.38;5091179;28;20408;-68
2020/12/29 23:23:28;;;;;;;5.93;5.63;;;;;;;3.90;86.79;98811.00;5092475;28;20105;-68
2020/12/29 23:25:56;;;;;;;6.50;6.20;;;;;;;3.88;86.80;98810.19;5092613;28;20054;-66
2020/12/29 23:28:22;;;;;;;6.32;6.03;;;;;;;3.86;86.72;98812.00;5092361;28;20047;-66
2020/12/29 23:30:49;;;;;;;5.88;5.57;;;;;;;3.85;86.97;98807.72;5092497;28;20131;-66
2020/12/29 23:33:16;;;;;;;6.40;6.10;;;;;;;3.84;86.67;98811.22;5092266;28;20060;-68
2020/12/29 23:35:43;;;;;;;5.85;5.55;;;;;;;3.83;86.72;98814.69;5091921;28;20055;-66
2020/12/29 23:38:09;;;;;;;6.30;6.00;;;;;;;3.81;86.68;98816.50;5090251;28;20132;-66
2020/12/29 23:40:36;;;;;;;6.47;6.18;;;;;;;3.79;86.76;98823.47;5091980;28;20093;-65
2020/12/29 23:43:04;;;;;;;5.88;5.57;;;;;;;3.77;86.53;98822.69;5091669;28;20162;-67
2020/12/29 23:45:30;;;;;;;6.10;5.80;;;;;;;3.73;86.54;98828.84;5091846;28;20048;-67
2020/12/29 23:47:56;;;;;;;6.30;6.00;;;;;;;3.71;86.79;98833.25;5091819;28;20052;-67
2020/12/29 23:50:23;;;;;;;5.82;5.53;;;;;;;3.71;86.63;98835.84;5091266;28;20093;-67
2020/12/29 23:52:49;;;;;;;6.03;5.72;;;;;;;3.70;86.79;98836.72;5092278;28;20044;-67
2020/12/29 23:55:15;;;;;;;5.88;5.57;;;;;;;3.67;86.53;98839.44;5092136;28;20105;-67
2020/12/29 23:57:42;;;;;;;6.07;5.78;;;;;;;3.64;86.54;98842.13;5091752;28;20054;-67
